createdAt,value
2018-11-28T00:00:31.741Z,0.00
2018-11-28T00:01:31.712Z,0.00
2018-11-28T00:02:31.705Z,0.00
2018-11-28T00:03:31.702Z,0.00
2018-11-28T00:04:31.693Z,0.00
2018-11-28T00:05:31.689Z,0.00
2018-11-28T00:06:31.677Z,0.00
2018-11-28T00:07:31.659Z,0.00
2018-11-28T00:08:31.648Z,0.00
2018-11-28T00:09:31.639Z,0.00
2018-11-28T00:10:31.626Z,0.00
2018-11-28T00:11:31.644Z,0.00
2018-11-28T00:12:31.615Z,0.00
2018-11-28T00:13:31.591Z,0.00
2018-11-28T00:14:31.584Z,0.00
2018-11-28T00:15:31.578Z,0.00
2018-11-28T00:16:31.587Z,0.00
2018-11-28T00:17:31.555Z,0.00
2018-11-28T00:18:31.546Z,0.00
2018-11-28T00:19:31.534Z,0.00
2018-11-28T00:20:31.519Z,0.00
2018-11-28T00:21:31.528Z,0.00
2018-11-28T00:22:31.522Z,0.00
2018-11-28T00:23:31.485Z,0.00
2018-11-28T00:24:31.472Z,0.00
2018-11-28T00:25:31.463Z,0.00
2018-11-28T00:26:31.455Z,0.00
2018-11-28T00:27:31.469Z,0.00
2018-11-28T00:28:31.437Z,0.00
2018-11-28T00:29:31.427Z,0.00
2018-11-28T00:30:31.414Z,0.00
2018-11-28T00:31:31.401Z,0.00
2018-11-28T00:32:31.400Z,0.00
2018-11-28T00:33:31.389Z,0.00
2018-11-28T00:34:31.372Z,0.00
2018-11-28T00:35:31.360Z,0.00
2018-11-28T00:36:31.363Z,0.00
2018-11-28T00:37:31.332Z,0.00
2018-11-28T00:38:31.323Z,0.00
2018-11-28T00:39:31.322Z,0.00
2018-11-28T00:40:31.307Z,0.00
2018-11-28T00:41:31.313Z,0.00
2018-11-28T00:42:31.285Z,0.00
2018-11-28T00:43:31.274Z,0.00
2018-11-28T00:44:31.271Z,0.00
2018-11-28T00:45:31.265Z,0.00
2018-11-28T00:46:31.250Z,0.00
2018-11-28T00:47:31.229Z,0.00
2018-11-28T00:48:31.233Z,0.00
2018-11-28T00:49:31.246Z,0.00
2018-11-28T00:50:31.199Z,0.00
2018-11-28T00:51:31.204Z,0.00
2018-11-28T00:52:31.195Z,0.00
2018-11-28T00:53:31.787Z,0.00
2018-11-28T00:54:31.247Z,0.00
2018-11-28T00:55:31.233Z,0.00
2018-11-28T00:56:31.164Z,0.00
2018-11-28T00:57:31.249Z,0.00
2018-11-28T00:58:31.108Z,0.00
2018-11-28T00:59:31.140Z,0.00
2018-11-28T01:00:31.130Z,0.00
2018-11-28T01:01:31.101Z,0.00
2018-11-28T01:02:31.085Z,0.00
2018-11-28T01:03:31.055Z,0.00
2018-11-28T01:04:31.045Z,0.00
2018-11-28T01:05:31.030Z,0.00
2018-11-28T01:06:31.029Z,0.00
2018-11-28T01:07:31.026Z,0.00
2018-11-28T01:08:31.039Z,0.00
2018-11-28T01:09:30.992Z,0.00
2018-11-28T01:10:30.997Z,0.00
2018-11-28T01:11:30.981Z,0.00
2018-11-28T01:12:30.970Z,0.00
2018-11-28T01:13:30.982Z,0.00
2018-11-28T01:14:30.956Z,0.00
2018-11-28T01:15:30.937Z,0.00
2018-11-28T01:16:30.920Z,0.00
2018-11-28T01:17:30.936Z,0.00
2018-11-28T01:18:30.937Z,0.00
2018-11-28T01:19:30.906Z,0.00
2018-11-28T01:20:30.893Z,0.00
2018-11-28T01:21:30.883Z,0.00
2018-11-28T01:22:30.855Z,0.00
2018-11-28T01:23:30.848Z,0.00
2018-11-28T01:24:30.860Z,0.00
2018-11-28T01:25:30.827Z,0.00
2018-11-28T01:26:30.814Z,0.00
2018-11-28T01:27:30.802Z,0.00
2018-11-28T01:28:30.802Z,0.00
2018-11-28T01:29:30.785Z,0.00
2018-11-28T01:30:30.799Z,0.00
2018-11-28T01:31:30.764Z,0.00
2018-11-28T01:32:30.754Z,0.00
2018-11-28T01:33:30.789Z,0.00
2018-11-28T01:34:30.748Z,0.00
2018-11-28T01:35:30.717Z,0.00
2018-11-28T01:36:30.736Z,0.00
2018-11-28T01:37:30.696Z,0.00
2018-11-28T01:38:30.687Z,0.00
2018-11-28T01:39:30.693Z,0.00
2018-11-28T01:40:30.693Z,0.00
2018-11-28T01:41:30.653Z,0.00
2018-11-28T01:42:30.653Z,0.00
2018-11-28T01:43:30.676Z,0.00
2018-11-28T01:44:30.641Z,0.00
2018-11-28T01:45:30.617Z,0.00
2018-11-28T01:46:30.611Z,0.00
2018-11-28T01:47:30.591Z,0.00
2018-11-28T01:48:30.582Z,0.00
2018-11-28T01:49:30.582Z,0.00
2018-11-28T01:50:30.571Z,0.00
2018-11-28T01:51:30.567Z,0.00
2018-11-28T01:52:30.545Z,0.00
2018-11-28T01:53:30.594Z,0.00
2018-11-28T01:54:30.562Z,0.00
2018-11-28T01:55:30.509Z,0.00
2018-11-28T01:56:30.494Z,0.00
2018-11-28T01:57:30.493Z,0.00
2018-11-28T01:58:30.497Z,0.00
2018-11-28T01:59:30.476Z,0.00
2018-11-28T02:00:30.473Z,0.00
2018-11-28T02:01:30.455Z,0.00
2018-11-28T02:02:30.440Z,0.00
2018-11-28T02:03:30.448Z,0.00
2018-11-28T02:04:30.419Z,0.00
2018-11-28T02:05:30.428Z,0.00
2018-11-28T02:06:30.396Z,0.00
2018-11-28T02:07:30.381Z,0.00
2018-11-28T02:08:30.368Z,0.00
2018-11-28T02:09:30.371Z,0.00
2018-11-28T02:10:30.381Z,0.00
2018-11-28T02:11:30.350Z,0.00
2018-11-28T02:12:30.333Z,0.00
2018-11-28T02:13:30.315Z,0.00
2018-11-28T02:14:30.307Z,0.00
2018-11-28T02:15:30.300Z,0.00
2018-11-28T02:16:30.313Z,0.00
2018-11-28T02:17:30.307Z,0.00
2018-11-28T02:18:30.267Z,0.00
2018-11-28T02:19:30.264Z,0.00
2018-11-28T02:20:30.242Z,0.00
2018-11-28T02:21:30.252Z,0.00
2018-11-28T02:22:30.224Z,0.00
2018-11-28T02:23:30.224Z,0.00
2018-11-28T02:24:30.214Z,0.00
2018-11-28T02:25:30.205Z,0.00
2018-11-28T02:26:30.226Z,0.00
2018-11-28T02:27:30.186Z,0.00
2018-11-28T02:28:30.160Z,0.00
2018-11-28T02:29:30.157Z,0.00
2018-11-28T02:30:30.144Z,0.00
2018-11-28T02:31:30.131Z,0.00
2018-11-28T02:32:30.129Z,0.00
2018-11-28T02:33:30.108Z,0.00
2018-11-28T02:34:30.109Z,0.00
2018-11-28T02:35:30.095Z,0.00
2018-11-28T02:36:30.118Z,0.00
2018-11-28T02:37:30.083Z,0.00
2018-11-28T02:38:30.058Z,0.00
2018-11-28T02:39:30.052Z,0.00
2018-11-28T02:40:30.048Z,0.00
2018-11-28T02:41:30.032Z,0.00
2018-11-28T02:42:30.023Z,0.00
2018-11-28T02:43:30.019Z,0.00
2018-11-28T02:44:30.000Z,0.00
2018-11-28T02:45:29.981Z,0.00
2018-11-28T02:46:29.979Z,0.00
2018-11-28T02:47:29.982Z,0.00
2018-11-28T02:48:29.957Z,0.00
2018-11-28T02:49:29.972Z,0.00
2018-11-28T02:50:29.943Z,0.00
2018-11-28T02:51:29.922Z,0.00
2018-11-28T02:52:29.923Z,0.00
2018-11-28T02:53:29.908Z,0.00
2018-11-28T02:54:29.921Z,0.00
2018-11-28T02:55:29.882Z,0.00
2018-11-28T02:56:29.874Z,0.00
2018-11-28T02:57:29.869Z,0.00
2018-11-28T02:58:29.853Z,0.00
2018-11-28T02:59:29.867Z,0.00
2018-11-28T03:00:29.829Z,0.00
2018-11-28T03:01:29.826Z,0.00
2018-11-28T03:02:29.814Z,0.00
2018-11-28T03:03:29.804Z,0.00
2018-11-28T03:04:29.783Z,0.00
2018-11-28T03:05:29.794Z,0.00
2018-11-28T03:06:29.763Z,0.00
2018-11-28T03:07:29.768Z,0.00
2018-11-28T03:08:29.748Z,0.00
2018-11-28T03:09:29.743Z,0.00
2018-11-28T03:10:29.754Z,0.00
2018-11-28T03:11:29.708Z,0.00
2018-11-28T03:12:29.712Z,0.00
2018-11-28T03:13:29.690Z,0.00
2018-11-28T03:14:29.677Z,0.00
2018-11-28T03:15:29.695Z,0.00
2018-11-28T03:16:29.677Z,0.00
2018-11-28T03:17:29.649Z,0.00
2018-11-28T03:18:29.636Z,0.00
2018-11-28T03:19:29.643Z,0.00
2018-11-28T03:20:29.619Z,0.00
2018-11-28T03:21:29.630Z,0.00
2018-11-28T03:22:29.638Z,0.00
2018-11-28T03:23:29.588Z,0.00
2018-11-28T03:24:29.579Z,0.00
2018-11-28T03:25:29.577Z,0.00
2018-11-28T03:26:29.551Z,0.00
2018-11-28T03:27:29.557Z,0.00
2018-11-28T03:28:29.537Z,0.00
2018-11-28T03:29:29.539Z,0.00
2018-11-28T03:30:29.529Z,0.00
2018-11-28T03:31:29.504Z,0.00
2018-11-28T03:32:29.492Z,0.00
2018-11-28T03:33:29.510Z,0.00
2018-11-28T03:34:29.482Z,0.00
2018-11-28T03:35:29.491Z,0.00
2018-11-28T03:36:29.465Z,0.00
2018-11-28T03:37:29.438Z,0.00
2018-11-28T03:38:29.453Z,0.00
2018-11-28T03:39:29.430Z,0.00
2018-11-28T03:40:29.429Z,0.00
2018-11-28T03:41:29.421Z,0.00
2018-11-28T03:42:29.398Z,0.00
2018-11-28T03:43:29.372Z,0.00
2018-11-28T03:44:29.379Z,0.00
2018-11-28T03:45:29.364Z,0.00
2018-11-28T03:46:29.351Z,0.00
2018-11-28T03:47:29.340Z,0.00
2018-11-28T03:48:29.336Z,0.00
2018-11-28T03:49:29.316Z,0.00
2018-11-28T03:50:29.308Z,0.00
2018-11-28T03:51:29.312Z,0.00
2018-11-28T03:52:29.286Z,0.00
2018-11-28T03:53:29.282Z,0.00
2018-11-28T03:54:29.264Z,0.00
2018-11-28T03:55:29.279Z,0.00
2018-11-28T03:56:29.256Z,0.00
2018-11-28T03:57:29.250Z,0.00
2018-11-28T03:58:29.224Z,0.00
2018-11-28T03:59:29.217Z,0.00
2018-11-28T04:00:29.223Z,0.00
2018-11-28T04:01:29.196Z,0.00
2018-11-28T04:02:29.191Z,0.00
2018-11-28T04:03:29.163Z,0.00
2018-11-28T04:04:29.159Z,0.00
2018-11-28T04:05:29.193Z,0.00
2018-11-28T04:06:29.137Z,0.00
2018-11-28T04:07:29.118Z,0.00
2018-11-28T04:08:29.138Z,0.00
2018-11-28T04:09:29.099Z,0.00
2018-11-28T04:10:29.105Z,0.00
2018-11-28T04:11:29.085Z,0.00
2018-11-28T04:12:29.072Z,0.00
2018-11-28T04:13:29.064Z,0.00
2018-11-28T04:14:29.052Z,0.00
2018-11-28T04:15:29.057Z,0.00
2018-11-28T04:16:29.039Z,0.00
2018-11-28T04:17:29.024Z,0.00
2018-11-28T04:18:29.024Z,0.00
2018-11-28T04:19:28.996Z,0.00
2018-11-28T04:20:29.001Z,0.00
2018-11-28T04:21:28.972Z,0.00
2018-11-28T04:22:28.975Z,0.00
2018-11-28T04:23:28.971Z,0.00
2018-11-28T04:24:28.956Z,0.00
2018-11-28T04:25:28.931Z,0.00
2018-11-28T04:26:28.948Z,0.00
2018-11-28T04:27:28.907Z,0.00
2018-11-28T04:28:28.898Z,0.00
2018-11-28T04:29:28.890Z,0.00
2018-11-28T04:30:28.881Z,0.00
2018-11-28T04:31:28.895Z,0.00
2018-11-28T04:32:28.880Z,0.00
2018-11-28T04:33:28.875Z,0.00
2018-11-28T04:34:28.841Z,0.00
2018-11-28T04:35:28.820Z,0.00
2018-11-28T04:36:28.827Z,0.00
2018-11-28T04:37:28.809Z,0.00
2018-11-28T04:38:29.447Z,0.00
2018-11-28T04:39:28.813Z,0.00
2018-11-28T04:40:28.775Z,0.00
2018-11-28T04:41:28.775Z,0.00
2018-11-28T04:42:28.748Z,0.00
2018-11-28T04:43:28.744Z,0.00
2018-11-28T04:44:28.733Z,0.00
2018-11-28T04:45:28.733Z,0.00
2018-11-28T04:46:28.713Z,0.00
2018-11-28T04:47:28.704Z,0.00
2018-11-28T04:48:28.685Z,0.00
2018-11-28T04:49:28.678Z,0.00
2018-11-28T04:50:28.667Z,0.00
2018-11-28T04:51:28.677Z,0.00
2018-11-28T04:52:28.698Z,0.00
2018-11-28T04:53:28.638Z,0.00
2018-11-28T04:54:28.620Z,0.00
2018-11-28T04:55:28.629Z,0.00
2018-11-28T04:56:28.622Z,0.00
2018-11-28T04:57:28.604Z,0.00
2018-11-28T04:58:28.585Z,0.00
2018-11-28T04:59:28.575Z,0.00
2018-11-28T05:00:28.568Z,0.00
2018-11-28T05:01:28.551Z,0.00
2018-11-28T05:02:28.564Z,0.00
2018-11-28T05:03:28.534Z,0.00
2018-11-28T05:04:28.533Z,0.00
2018-11-28T05:05:28.516Z,0.00
2018-11-28T05:06:28.513Z,0.00
2018-11-28T05:07:28.497Z,0.00
2018-11-28T05:08:28.479Z,0.00
2018-11-28T05:09:28.467Z,0.00
2018-11-28T05:10:28.461Z,0.00
2018-11-28T05:11:28.445Z,0.00
2018-11-28T05:12:28.442Z,0.00
2018-11-28T05:13:28.441Z,0.00
2018-11-28T05:14:28.410Z,0.00
2018-11-28T05:15:28.413Z,0.00
2018-11-28T05:16:28.402Z,0.00
2018-11-28T05:17:28.411Z,0.00
2018-11-28T05:18:28.374Z,0.00
2018-11-28T05:19:28.361Z,0.00
2018-11-28T05:20:28.356Z,0.00
2018-11-28T05:21:28.344Z,0.00
2018-11-28T05:22:28.342Z,0.00
2018-11-28T05:23:28.320Z,0.00
2018-11-28T05:24:28.310Z,0.00
2018-11-28T05:25:28.321Z,0.00
2018-11-28T05:26:28.280Z,0.00
2018-11-28T05:27:28.289Z,0.00
2018-11-28T05:28:28.262Z,0.00
2018-11-28T05:29:28.258Z,0.00
2018-11-28T05:30:28.243Z,0.00
2018-11-28T05:31:28.224Z,0.00
2018-11-28T05:32:28.246Z,0.00
2018-11-28T05:33:28.207Z,0.00
2018-11-28T05:34:28.192Z,0.00
2018-11-28T05:35:28.190Z,0.00
2018-11-28T05:36:28.178Z,0.00
2018-11-28T05:37:28.186Z,0.00
2018-11-28T05:38:28.175Z,0.00
2018-11-28T05:39:28.140Z,0.00
2018-11-28T05:40:28.131Z,0.00
2018-11-28T05:41:28.125Z,0.00
2018-11-28T05:42:28.129Z,0.00
2018-11-28T05:43:28.108Z,0.00
2018-11-28T05:44:28.096Z,0.00
2018-11-28T05:45:28.081Z,0.00
2018-11-28T05:46:28.065Z,0.00
2018-11-28T05:47:28.073Z,0.00
2018-11-28T05:48:28.066Z,0.00
2018-11-28T05:49:28.039Z,0.00
2018-11-28T05:50:28.031Z,0.00
2018-11-28T05:51:28.011Z,0.00
2018-11-28T05:52:28.022Z,0.00
2018-11-28T05:53:27.999Z,0.00
2018-11-28T05:54:27.981Z,0.00
2018-11-28T05:55:27.981Z,0.00
2018-11-28T05:56:27.965Z,0.00
2018-11-28T05:57:27.968Z,0.00
2018-11-28T05:58:27.945Z,0.00
2018-11-28T05:59:27.954Z,0.00
2018-11-28T06:00:27.922Z,0.00
2018-11-28T06:01:27.929Z,0.00
2018-11-28T06:02:27.961Z,0.00
2018-11-28T06:03:28.661Z,0.00
2018-11-28T06:04:27.925Z,0.00
2018-11-28T06:05:27.924Z,0.00
2018-11-28T06:06:27.911Z,0.00
2018-11-28T06:07:27.866Z,0.00
2018-11-28T06:08:27.837Z,0.00
2018-11-28T06:09:27.825Z,0.00
2018-11-28T06:10:27.818Z,0.00
2018-11-28T06:11:27.822Z,0.00
2018-11-28T06:12:27.792Z,0.00
2018-11-28T06:13:27.784Z,0.00
2018-11-28T06:14:27.801Z,0.00
2018-11-28T06:15:27.759Z,0.00
2018-11-28T06:16:27.754Z,0.00
2018-11-28T06:17:27.751Z,0.00
2018-11-28T06:18:27.727Z,0.00
2018-11-28T06:19:27.722Z,0.00
2018-11-28T06:20:27.758Z,0.00
2018-11-28T06:21:27.749Z,0.00
2018-11-28T06:22:27.696Z,0.00
2018-11-28T06:23:27.680Z,0.00
2018-11-28T06:24:27.700Z,0.00
2018-11-28T06:25:27.694Z,0.00
2018-11-28T06:26:27.702Z,0.00
2018-11-28T06:27:27.642Z,0.00
2018-11-28T06:28:27.623Z,0.00
2018-11-28T06:29:27.617Z,0.00
2018-11-28T06:30:27.603Z,4.00
2018-11-28T06:31:27.626Z,4.00
2018-11-28T06:32:27.594Z,4.00
2018-11-28T06:33:27.594Z,4.00
2018-11-28T06:34:27.568Z,0.00
2018-11-28T06:35:27.592Z,0.00
2018-11-28T06:36:27.550Z,0.00
2018-11-28T06:37:27.545Z,4.00
2018-11-28T06:38:27.513Z,4.00
2018-11-28T06:39:27.510Z,0.00
2018-11-28T06:40:27.512Z,4.00
2018-11-28T06:41:27.537Z,4.00
2018-11-28T06:42:27.507Z,4.00
2018-11-28T06:43:27.541Z,4.00
2018-11-28T06:44:27.454Z,4.00
2018-11-28T06:45:27.454Z,4.00
2018-11-28T06:46:27.436Z,8.00
2018-11-28T06:47:27.417Z,8.00
2018-11-28T06:48:27.410Z,8.00
2018-11-28T06:49:27.412Z,8.00
2018-11-28T06:50:27.398Z,8.00
2018-11-28T06:51:27.382Z,12.00
2018-11-28T06:52:27.369Z,16.00
2018-11-28T06:53:27.359Z,16.00
2018-11-28T06:54:27.362Z,16.00
2018-11-28T06:55:27.385Z,20.00
2018-11-28T06:56:27.324Z,28.00
2018-11-28T06:57:27.343Z,24.00
2018-11-28T06:58:27.300Z,32.00
2018-11-28T06:59:27.347Z,36.00
2018-11-28T07:00:27.299Z,40.00
2018-11-28T07:01:27.279Z,40.00
2018-11-28T07:02:27.262Z,44.00
2018-11-28T07:03:27.264Z,44.00
2018-11-28T07:04:27.241Z,48.00
2018-11-28T07:05:27.257Z,48.00
2018-11-28T07:06:27.252Z,56.00
2018-11-28T07:07:27.204Z,60.00
2018-11-28T07:08:27.204Z,64.00
2018-11-28T07:09:27.194Z,72.00
2018-11-28T07:10:27.199Z,80.00
2018-11-28T07:11:27.175Z,88.00
2018-11-28T07:12:27.161Z,92.00
2018-11-28T07:13:27.150Z,104.00
2018-11-28T07:14:27.146Z,112.00
2018-11-28T07:15:27.131Z,120.00
2018-11-28T07:16:27.194Z,132.00
2018-11-28T07:17:27.115Z,144.00
2018-11-28T07:18:27.101Z,152.00
2018-11-28T07:19:27.097Z,160.00
2018-11-28T07:20:27.109Z,172.00
2018-11-28T07:21:27.062Z,176.00
2018-11-28T07:22:27.052Z,188.00
2018-11-28T07:23:27.047Z,200.00
2018-11-28T07:24:27.036Z,212.00
2018-11-28T07:25:27.043Z,224.00
2018-11-28T07:26:27.020Z,240.00
2018-11-28T07:27:27.008Z,248.00
2018-11-28T07:28:26.986Z,252.00
2018-11-28T07:29:26.970Z,260.00
2018-11-28T07:30:26.981Z,264.00
2018-11-28T07:31:26.961Z,260.00
2018-11-28T07:32:26.966Z,256.00
2018-11-28T07:33:26.937Z,260.00
2018-11-28T07:34:26.920Z,260.00
2018-11-28T07:35:26.932Z,272.00
2018-11-28T07:36:26.935Z,280.00
2018-11-28T07:37:26.895Z,292.00
2018-11-28T07:38:26.881Z,304.00
2018-11-28T07:39:26.868Z,320.00
2018-11-28T07:40:26.855Z,332.00
2018-11-28T07:41:26.890Z,352.00
2018-11-28T07:42:26.841Z,372.00
2018-11-28T07:43:26.839Z,392.00
2018-11-28T07:44:26.841Z,400.00
2018-11-28T07:45:26.839Z,404.00
2018-11-28T07:46:26.797Z,424.00
2018-11-28T07:47:26.789Z,460.00
2018-11-28T07:48:26.770Z,452.00
2018-11-28T07:49:26.832Z,476.00
2018-11-28T07:50:26.808Z,480.00
2018-11-28T07:51:26.761Z,504.00
2018-11-28T07:52:26.734Z,524.00
2018-11-28T07:53:26.737Z,540.00
2018-11-28T07:54:26.731Z,560.00
2018-11-28T07:55:26.703Z,584.00
2018-11-28T07:56:26.695Z,600.00
2018-11-28T07:57:26.709Z,624.00
2018-11-28T07:58:26.678Z,648.00
2018-11-28T07:59:26.684Z,696.00
2018-11-28T08:00:26.649Z,768.00
2018-11-28T08:01:26.678Z,760.00
2018-11-28T08:02:26.636Z,732.00
2018-11-28T08:03:26.621Z,728.00
2018-11-28T08:04:26.787Z,736.00
2018-11-28T08:05:26.610Z,740.00
2018-11-28T08:06:26.591Z,740.00
2018-11-28T08:07:26.584Z,736.00
2018-11-28T08:08:26.574Z,736.00
2018-11-28T08:09:26.572Z,732.00
2018-11-28T08:10:26.603Z,732.00
2018-11-28T08:11:26.562Z,728.00
2018-11-28T08:12:26.541Z,728.00
2018-11-28T08:13:26.510Z,720.00
2018-11-28T08:14:26.520Z,732.00
2018-11-28T08:15:26.498Z,780.00
2018-11-28T08:16:26.502Z,788.00
2018-11-28T08:17:26.479Z,776.00
2018-11-28T08:18:26.462Z,752.00
2018-11-28T08:19:26.449Z,748.00
2018-11-28T08:20:26.447Z,716.00
2018-11-28T08:21:26.436Z,660.00
2018-11-28T08:22:27.350Z,632.00
2018-11-28T08:23:26.418Z,620.00
2018-11-28T08:24:26.394Z,624.00
2018-11-28T08:25:28.006Z,616.00
2018-11-28T08:26:26.380Z,608.00
2018-11-28T08:27:26.425Z,604.00
2018-11-28T08:28:26.380Z,612.00
2018-11-28T08:29:26.361Z,604.00
2018-11-28T08:30:26.344Z,608.00
2018-11-28T08:31:26.327Z,624.00
2018-11-28T08:32:26.342Z,656.00
2018-11-28T08:33:26.314Z,688.00
2018-11-28T08:34:26.293Z,668.00
2018-11-28T08:35:26.296Z,636.00
2018-11-28T08:36:26.317Z,632.00
2018-11-28T08:37:26.274Z,680.00
2018-11-28T08:38:26.262Z,660.00
2018-11-28T08:39:26.242Z,612.00
2018-11-28T08:40:26.238Z,560.00
2018-11-28T08:41:26.224Z,516.00
2018-11-28T08:42:26.214Z,512.00
2018-11-28T08:43:26.220Z,516.00
2018-11-28T08:44:26.187Z,520.00
2018-11-28T08:45:26.176Z,536.00
2018-11-28T08:46:26.972Z,532.00
2018-11-28T08:47:26.171Z,544.00
2018-11-28T08:48:26.219Z,552.00
2018-11-28T08:49:26.141Z,568.00
2018-11-28T08:50:26.166Z,564.00
2018-11-28T08:51:26.115Z,572.00
2018-11-28T08:52:26.107Z,576.00
2018-11-28T08:53:26.101Z,580.00
2018-11-28T08:54:26.100Z,576.00
2018-11-28T08:55:26.083Z,580.00
2018-11-28T08:56:26.059Z,588.00
2018-11-28T08:57:26.048Z,596.00
2018-11-28T08:58:26.041Z,612.00
2018-11-28T08:59:26.045Z,604.00
2018-11-28T09:00:26.034Z,608.00
2018-11-28T09:01:26.020Z,616.00
2018-11-28T09:02:26.009Z,624.00
2018-11-28T09:03:25.997Z,644.00
2018-11-28T09:04:25.993Z,664.00
2018-11-28T09:05:25.969Z,672.00
2018-11-28T09:06:25.966Z,696.00
2018-11-28T09:07:25.951Z,732.00
2018-11-28T09:08:25.943Z,768.00
2018-11-28T09:09:25.961Z,776.00
2018-11-28T09:10:25.916Z,800.00
2018-11-28T09:11:25.910Z,836.00
2018-11-28T09:12:25.920Z,884.00
2018-11-28T09:13:25.915Z,944.00
2018-11-28T09:14:25.877Z,968.00
2018-11-28T09:15:25.887Z,1004.00
2018-11-28T09:16:25.852Z,1032.00
2018-11-28T09:17:25.840Z,1048.00
2018-11-28T09:18:25.850Z,1076.00
2018-11-28T09:19:25.834Z,1088.00
2018-11-28T09:20:25.834Z,1104.00
2018-11-28T09:21:25.815Z,1108.00
2018-11-28T09:22:25.802Z,1132.00
2018-11-28T09:23:25.801Z,1136.00
2018-11-28T09:24:25.774Z,1148.00
2018-11-28T09:25:25.768Z,1156.00
2018-11-28T09:26:25.766Z,1180.00
2018-11-28T09:27:25.742Z,1196.00
2018-11-28T09:28:25.724Z,1192.00
2018-11-28T09:29:25.715Z,1192.00
2018-11-28T09:30:25.705Z,1176.00
2018-11-28T09:31:25.717Z,1172.00
2018-11-28T09:32:25.692Z,1168.00
2018-11-28T09:33:25.727Z,1164.00
2018-11-28T09:34:25.667Z,1168.00
2018-11-28T09:35:25.681Z,1188.00
2018-11-28T09:36:25.652Z,1192.00
2018-11-28T09:37:25.641Z,1208.00
2018-11-28T09:38:25.649Z,1220.00
2018-11-28T09:39:25.617Z,1244.00
2018-11-28T09:40:25.638Z,1240.00
2018-11-28T09:41:25.600Z,1244.00
2018-11-28T09:42:25.588Z,1248.00
2018-11-28T09:43:25.571Z,1252.00
2018-11-28T09:44:25.581Z,1248.00
2018-11-28T09:45:25.550Z,1220.00
2018-11-28T09:46:25.544Z,1228.00
2018-11-28T09:47:25.543Z,1204.00
2018-11-28T09:48:25.518Z,1208.00
2018-11-28T09:49:25.498Z,1208.00
2018-11-28T09:50:25.495Z,1204.00
2018-11-28T09:51:25.481Z,1188.00
2018-11-28T09:52:25.488Z,1200.00
2018-11-28T09:53:25.474Z,1172.00
2018-11-28T09:54:25.449Z,1172.00
2018-11-28T09:55:25.439Z,1144.00
2018-11-28T09:56:25.430Z,1128.00
2018-11-28T09:57:25.443Z,1120.00
2018-11-28T09:58:25.407Z,1120.00
2018-11-28T09:59:25.401Z,1096.00
2018-11-28T10:00:25.381Z,1100.00
2018-11-28T10:01:25.372Z,1092.00
2018-11-28T10:02:25.367Z,1096.00
2018-11-28T10:03:25.369Z,1088.00
2018-11-28T10:04:25.346Z,1076.00
2018-11-28T10:05:25.341Z,1084.00
2018-11-28T10:06:25.331Z,1112.00
2018-11-28T10:07:25.320Z,1100.00
2018-11-28T10:08:25.306Z,1132.00
2018-11-28T10:09:25.287Z,1144.00
2018-11-28T10:10:25.279Z,1168.00
2018-11-28T10:11:25.270Z,1196.00
2018-11-28T10:12:25.282Z,1240.00
2018-11-28T10:13:25.257Z,1264.00
2018-11-28T10:14:25.242Z,1268.00
2018-11-28T10:15:25.237Z,1284.00
2018-11-28T10:16:25.218Z,1288.00
2018-11-28T10:17:25.209Z,1268.00
2018-11-28T10:18:25.211Z,1216.00
2018-11-28T10:19:25.218Z,1180.00
2018-11-28T10:20:25.166Z,1168.00
2018-11-28T10:21:25.202Z,1144.00
2018-11-28T10:22:25.177Z,1120.00
2018-11-28T10:23:25.180Z,1108.00
2018-11-28T10:24:25.174Z,1096.00
2018-11-28T10:25:25.144Z,1084.00
2018-11-28T10:26:25.150Z,1076.00
2018-11-28T10:27:25.140Z,1060.00
2018-11-28T10:28:25.112Z,1076.00
2018-11-28T10:29:25.146Z,1060.00
2018-11-28T10:30:25.066Z,1068.00
2018-11-28T10:31:25.056Z,1072.00
2018-11-28T10:32:25.060Z,1068.00
2018-11-28T10:33:25.029Z,1100.00
2018-11-28T10:34:29.458Z,1084.00
2018-11-28T10:35:25.032Z,1116.00
2018-11-28T10:36:25.014Z,1104.00
2018-11-28T10:37:24.999Z,1100.00
2018-11-28T10:38:24.988Z,1096.00
2018-11-28T10:39:24.974Z,1096.00
2018-11-28T10:40:24.964Z,1096.00
2018-11-28T10:41:24.951Z,1088.00
2018-11-28T10:42:24.941Z,1072.00
2018-11-28T10:43:24.928Z,1064.00
2018-11-28T10:44:24.919Z,1060.00
2018-11-28T10:45:24.917Z,1056.00
2018-11-28T10:46:24.895Z,1076.00
2018-11-28T10:47:24.885Z,1060.00
2018-11-28T10:48:24.908Z,1076.00
2018-11-28T10:49:24.897Z,1068.00
2018-11-28T10:50:24.886Z,1072.00
2018-11-28T10:51:24.840Z,1064.00
2018-11-28T10:52:24.828Z,1060.00
2018-11-28T10:53:24.834Z,1048.00
2018-11-28T10:54:24.826Z,1048.00
2018-11-28T10:55:24.823Z,1040.00
2018-11-28T10:56:24.810Z,1036.00
2018-11-28T10:57:24.827Z,1036.00
2018-11-28T10:58:24.804Z,1036.00
2018-11-28T10:59:24.801Z,1036.00
2018-11-28T11:00:24.900Z,1028.00
2018-11-28T11:01:24.784Z,1028.00
2018-11-28T11:02:24.727Z,1028.00
2018-11-28T11:03:24.712Z,1024.00
2018-11-28T11:04:24.732Z,1012.00
2018-11-28T11:05:24.687Z,1004.00
2018-11-28T11:06:24.730Z,1028.00
2018-11-28T11:07:24.681Z,1016.00
2018-11-28T11:08:24.662Z,1024.00
2018-11-28T11:09:24.660Z,1028.00
2018-11-28T11:10:24.641Z,1040.00
2018-11-28T11:11:24.643Z,1048.00
2018-11-28T11:12:24.617Z,1072.00
2018-11-28T11:13:24.627Z,1092.00
2018-11-28T11:14:24.608Z,1116.00
2018-11-28T11:15:24.597Z,1152.00
2018-11-28T11:16:24.578Z,1196.00
2018-11-28T11:17:24.578Z,1224.00
2018-11-28T11:18:24.554Z,1240.00
2018-11-28T11:19:24.594Z,1244.00
2018-11-28T11:20:24.535Z,1240.00
2018-11-28T11:21:24.526Z,1248.00
2018-11-28T11:22:24.511Z,1256.00
2018-11-28T11:23:24.582Z,1264.00
2018-11-28T11:24:24.485Z,1268.00
2018-11-28T11:25:24.506Z,1272.00
2018-11-28T11:26:24.466Z,1268.00
2018-11-28T11:27:24.458Z,1268.00
2018-11-28T11:28:24.460Z,1260.00
2018-11-28T11:29:24.447Z,1244.00
2018-11-28T11:30:24.437Z,1236.00
2018-11-28T11:31:24.414Z,1220.00
2018-11-28T11:32:24.405Z,1196.00
2018-11-28T11:33:24.411Z,1180.00
2018-11-28T11:34:24.384Z,1148.00
2018-11-28T11:35:24.386Z,1152.00
2018-11-28T11:36:24.365Z,1120.00
2018-11-28T11:37:24.358Z,1124.00
2018-11-28T11:38:24.344Z,1116.00
2018-11-28T11:39:24.334Z,1104.00
2018-11-28T11:40:24.338Z,1080.00
2018-11-28T11:41:24.551Z,1060.00
2018-11-28T11:42:24.312Z,1056.00
2018-11-28T11:43:24.290Z,1056.00
2018-11-28T11:44:24.298Z,1036.00
2018-11-28T11:45:24.271Z,1028.00
2018-11-28T11:46:24.258Z,1012.00
2018-11-28T11:47:24.255Z,976.00
2018-11-28T11:48:24.234Z,968.00
2018-11-28T11:49:24.246Z,960.00
2018-11-28T11:50:24.228Z,956.00
2018-11-28T11:51:24.229Z,948.00
2018-11-28T11:52:24.193Z,952.00
2018-11-28T11:53:24.181Z,936.00
2018-11-28T11:54:24.212Z,932.00
2018-11-28T11:55:24.166Z,936.00
2018-11-28T11:56:24.176Z,920.00
2018-11-28T11:57:24.150Z,916.00
2018-11-28T11:58:24.132Z,912.00
2018-11-28T11:59:24.125Z,920.00
2018-11-28T12:00:24.105Z,936.00
2018-11-28T12:01:24.108Z,948.00
2018-11-28T12:02:24.089Z,972.00
2018-11-28T12:03:24.083Z,988.00
2018-11-28T12:04:24.088Z,1000.00
2018-11-28T12:05:24.050Z,1008.00
2018-11-28T12:06:24.060Z,1032.00
2018-11-28T12:07:24.038Z,1072.00
2018-11-28T12:08:24.031Z,1108.00
2018-11-28T12:09:24.030Z,1152.00
2018-11-28T12:10:24.011Z,1212.00
2018-11-28T12:11:23.997Z,1300.00
2018-11-28T12:12:23.975Z,1364.00
2018-11-28T12:13:23.965Z,1336.00
2018-11-28T12:14:23.979Z,1336.00
2018-11-28T12:15:23.951Z,1332.00
2018-11-28T12:16:23.947Z,1308.00
2018-11-28T12:17:23.931Z,1292.00
2018-11-28T12:18:23.920Z,1308.00
2018-11-28T12:19:23.918Z,1308.00
2018-11-28T12:20:23.892Z,1336.00
2018-11-28T12:21:23.888Z,1364.00
2018-11-28T12:22:23.874Z,1380.00
2018-11-28T12:23:23.902Z,1372.00
2018-11-28T12:24:23.856Z,1360.00
2018-11-28T12:25:23.840Z,1352.00
2018-11-28T12:26:23.839Z,1336.00
2018-11-28T12:27:23.841Z,1284.00
2018-11-28T12:28:23.869Z,1240.00
2018-11-28T12:29:23.800Z,1200.00
2018-11-28T12:30:23.789Z,1144.00
2018-11-28T12:31:23.791Z,1112.00
2018-11-28T12:32:23.798Z,1092.00
2018-11-28T12:33:23.868Z,1080.00
2018-11-28T12:34:23.751Z,1084.00
2018-11-28T12:35:23.744Z,1084.00
2018-11-28T12:36:23.746Z,1072.00
2018-11-28T12:37:23.734Z,1064.00
2018-11-28T12:38:23.703Z,1052.00
2018-11-28T12:40:23.692Z,1052.00
2018-11-28T12:41:23.677Z,1024.00
2018-11-28T12:42:23.683Z,1004.00
2018-11-28T12:43:23.661Z,1008.00
2018-11-28T12:44:23.637Z,1008.00
2018-11-28T12:45:23.641Z,1004.00
2018-11-28T12:46:23.616Z,1016.00
2018-11-28T12:47:23.609Z,1012.00
2018-11-28T12:48:23.618Z,1008.00
2018-11-28T12:49:23.587Z,1020.00